Weather History for KANW - October, 2012

Change the Weather History Date:

Saturday, October 6, 2012

  Actual Average Record
Temperature  
Mean Temperature 33 °F -  
Max Temperature 45 °F 65 °F 87 °F (2007)
Min Temperature 22 °F 40 °F 22 °F (2012)
Degree Days  
Heating Degree Days 32    
Moisture  
Dew Point 17 °F    
Average Humidity 58    
Maximum Humidity 83    
Minimum Humidity 29    
Precipitation  
Precipitation 0.00 in - - ()
Sea Level Pressure  
Sea Level Pressure 30.34 in    
Wind  
Wind Speed 6 mph (NW)    
Max Wind Speed 14 mph    
Max Gust Speed 21 mph    
Visibility 10 miles    
Events      
Averages and records for this station are not official NWS values.
T = Trace of Precipitation, MM = Missing Value Source: NWS Daily Summary

Daily Weather History Graph

Daily Weather History Graph

Search for Another Location

Airport or City:

Trip Planner

Search our weather history database for the weather conditions in past years. The results will help you decide how hot, cold, wet, or windy it might be!

Date:

Astronomy

Oct. 06, 2012 Rise Set
Actual Time 7:43 AM CDT 7:11 PM CDT
Civil Twilight 7:15 AM CDT 7:39 PM CDT
Nautical Twilight 6:42 AM CDT 8:12 PM CDT
Astronomical Twilight 6:09 AM CDT 8:45 PM CDT
Moon 11:23 PM CDT 1:45 PM CDT
Length of Visible Light 12h 24m
Length of Day
11h 28m
Waning Gibbous, 65% of the Moon is Illuminated
Oct 6
Waning Gibbous
Oct 8
Last Quarter
Oct 15
New
Oct 21
First Quarter
Oct 29
Full

Hourly Weather History & Observations

Time (CDT) Temp. Windchill Dew Point Humidity Pressure Visibility Wind Dir Wind Speed Gust Speed Precip Events Conditions
12:15 AM 29.8 °F 23.9 °F 19.4 °F 65% 30.34 in 10.0 mi WNW 5.8 mph - N/A   Clear
12:35 AM 31.1 °F 26.4 °F 19.8 °F 63% 30.33 in 10.0 mi NW 4.6 mph - N/A   Clear
12:55 AM 26.6 °F 22.6 °F 18.7 °F 72% 30.33 in 10.0 mi NNW 3.5 mph - N/A   Clear
1:15 AM 25.9 °F 21.7 °F 18.0 °F 72% 30.32 in 10.0 mi NNW 3.5 mph - N/A   Clear
1:35 AM 27.7 °F 23.8 °F 19.4 °F 71% 30.32 in 10.0 mi NNW 3.5 mph - N/A   Clear
1:55 AM 24.6 °F 20.3 °F 18.0 °F 76% 30.33 in 10.0 mi West 3.5 mph - N/A   Clear
2:15 AM 25.2 °F 18.3 °F 18.5 °F 76% 30.35 in 10.0 mi West 5.8 mph - N/A   Clear
2:35 AM 25.0 °F 16.3 °F 18.3 °F 76% 30.35 in 10.0 mi WNW 8.1 mph - N/A   Clear
2:55 AM 25.0 °F 18.1 °F 17.8 °F 74% 30.36 in 10.0 mi West 5.8 mph - N/A   Clear
3:15 AM 23.9 °F 16.8 °F 17.6 °F 77% 30.36 in 10.0 mi WNW 5.8 mph - N/A   Clear
3:35 AM 23.2 °F 16.0 °F 17.8 °F 80% 30.36 in 10.0 mi WSW 5.8 mph - N/A   Clear
3:55 AM 22.8 °F 18.2 °F 18.3 °F 83% 30.36 in 10.0 mi West 3.5 mph - N/A   Clear
4:15 AM 24.1 °F 18.2 °F 18.7 °F 80% 30.36 in 10.0 mi West 4.6 mph - N/A   Scattered Clouds
4:35 AM 24.6 °F 18.8 °F 19.0 °F 79% 30.36 in 10.0 mi West 4.6 mph - N/A   Mostly Cloudy
4:55 AM 24.6 °F 17.7 °F 18.5 °F 78% 30.36 in 10.0 mi West 5.8 mph - N/A   Mostly Cloudy
5:15 AM 25.3 °F 17.6 °F 18.9 °F 76% 30.36 in 10.0 mi NW 6.9 mph - N/A   Scattered Clouds
5:35 AM 26.1 °F 19.4 °F 19.0 °F 75% 30.36 in 10.0 mi NW 5.8 mph - N/A   Clear
5:55 AM 25.9 °F 17.4 °F 19.2 °F 76% 30.36 in 10.0 mi NNW 8.1 mph - N/A   Clear
6:15 AM 25.5 °F 18.7 °F 19.0 °F 76% 30.36 in 10.0 mi NNW 5.8 mph - N/A   Clear
6:35 AM 24.4 °F 20.1 °F 18.5 °F 78% 30.36 in 10.0 mi WNW 3.5 mph - N/A   Clear
6:55 AM 23.9 °F 19.5 °F 18.5 °F 80% 30.36 in 10.0 mi WNW 3.5 mph - N/A   Scattered Clouds
7:15 AM 23.9 °F - 18.9 °F 81% 30.36 in 10.0 mi Calm Calm - N/A   Scattered Clouds
7:35 AM 23.5 °F 16.4 °F 18.5 °F 81% 30.36 in 10.0 mi WNW 5.8 mph - N/A   Clear
7:55 AM 24.6 °F 18.8 °F 19.2 °F 80% 30.36 in 10.0 mi WNW 4.6 mph - N/A   Clear
8:15 AM 24.3 °F - 19.2 °F 81% 30.37 in 10.0 mi Calm Calm - N/A   Clear
8:35 AM 25.7 °F 21.5 °F 20.3 °F 80% 30.38 in 10.0 mi WNW 3.5 mph - N/A   Scattered Clouds
8:55 AM 28.4 °F 24.6 °F 21.2 °F 74% 30.38 in 10.0 mi WNW 3.5 mph - N/A   Mostly Cloudy
9:15 AM 28.8 °F 22.6 °F 21.2 °F 73% 30.38 in 10.0 mi NNW 5.8 mph - N/A   Overcast
9:35 AM 29.8 °F 21.5 °F 21.4 °F 71% 30.38 in 10.0 mi NNW 9.2 mph - N/A   Overcast
9:55 AM 31.8 °F 21.8 °F 22.3 °F 68% 30.39 in 10.0 mi North 13.8 mph - N/A   Mostly Cloudy
10:15 AM 32.4 °F 22.5 °F 22.3 °F 66% 30.39 in 10.0 mi North 13.8 mph - N/A   Overcast
10:35 AM 32.7 °F 23.0 °F 21.9 °F 64% 30.39 in 10.0 mi North 13.8 mph - N/A   Overcast
10:55 AM 33.8 °F 24.3 °F 21.4 °F 60% 30.39 in 10.0 mi North 13.8 mph - N/A   Overcast
11:15 AM 33.6 °F 25.6 °F 21.4 °F 61% 30.39 in 10.0 mi North 10.4 mph - N/A   Overcast
11:35 AM 34.7 °F 26.4 °F 21.6 °F 59% 30.38 in 10.0 mi North 11.5 mph 17.3 mph N/A   Scattered Clouds
11:55 AM 35.1 °F 26.9 °F 20.8 °F 56% 30.39 in 10.0 mi North 11.5 mph 17.3 mph N/A   Scattered Clouds
12:15 PM 36.1 °F 28.7 °F 21.0 °F 54% 30.39 in 10.0 mi NNW 10.4 mph - N/A   Scattered Clouds
12:35 PM 36.9 °F 30.7 °F 19.8 °F 50% 30.38 in 10.0 mi NNW 8.1 mph 16.1 mph N/A   Clear
12:55 PM 38.1 °F 34.6 °F 19.2 °F 47% 30.38 in 10.0 mi North 4.6 mph - N/A   Clear
1:15 PM 39.6 °F 34.0 °F 18.0 °F 42% 30.37 in 10.0 mi North 8.1 mph - N/A   Clear
1:35 PM 40.3 °F 34.4 °F 16.5 °F 38% 30.36 in 10.0 mi NNE 9.2 mph - N/A   Clear
1:55 PM 41.7 °F 38.0 °F 16.0 °F 35% 30.35 in 10.0 mi North 5.8 mph 10.4 mph N/A   Clear
2:15 PM 42.4 °F 38.1 °F 16.0 °F 34% 30.34 in 10.0 mi North 6.9 mph - N/A   Clear
2:35 PM 42.8 °F 36.6 °F 15.3 °F 33% 30.33 in 10.0 mi NNW 11.5 mph - N/A   Clear
2:55 PM 43.2 °F 36.2 °F 14.0 °F 31% 30.32 in 10.0 mi NNW 13.8 mph 17.3 mph N/A   Clear
3:15 PM 43.5 °F 39.4 °F 14.4 °F 31% 30.32 in 10.0 mi North 6.9 mph - N/A   Clear
3:35 PM 43.5 °F 37.9 °F 14.5 °F 31% 30.31 in 10.0 mi NW 10.4 mph - N/A   Clear
3:55 PM 43.5 °F 37.9 °F 14.7 °F 31% 30.31 in 10.0 mi North 10.4 mph 17.3 mph N/A   Clear
4:15 PM 44.4 °F 40.5 °F 14.7 °F 30% 30.31 in 10.0 mi NNW 6.9 mph 20.7 mph N/A   Clear
4:35 PM 44.4 °F 39.5 °F 14.9 °F 30% 30.31 in 10.0 mi NW 9.2 mph 16.1 mph N/A   Clear
4:55 PM 44.4 °F 39.5 °F 15.3 °F 31% 30.31 in 10.0 mi NW 9.2 mph - N/A   Scattered Clouds
5:15 PM 44.2 °F 38.8 °F 14.4 °F 30% 30.30 in 10.0 mi WNW 10.4 mph - N/A   Clear
5:35 PM 44.1 °F 40.1 °F 14.5 °F 30% 30.30 in 10.0 mi NW 6.9 mph - N/A   Clear
5:55 PM 44.6 °F 41.4 °F 14.0 °F 29% 30.30 in 10.0 mi NNW 5.8 mph 17.3 mph N/A   Scattered Clouds
6:15 PM 43.2 °F 39.0 °F 13.8 °F 31% 30.30 in 10.0 mi NW 6.9 mph - N/A   Scattered Clouds
6:35 PM 42.3 °F 38.6 °F 13.6 °F 31% 30.29 in 10.0 mi NW 5.8 mph - N/A   Scattered Clouds
6:55 PM 40.6 °F 37.5 °F 13.3 °F 33% 30.29 in 10.0 mi NNW 4.6 mph - N/A   Clear
7:15 PM 38.8 °F 36.5 °F 12.7 °F 34% 30.29 in 10.0 mi NW 3.5 mph - N/A   Clear
7:35 PM 38.7 °F 36.3 °F 12.6 °F 34% 30.29 in 10.0 mi NNW 3.5 mph - N/A   Clear
7:55 PM 35.8 °F - 12.4 °F 38% 30.29 in 10.0 mi Calm Calm - N/A   Clear
8:15 PM 34.0 °F - 13.3 °F 43% 30.29 in 10.0 mi Calm Calm - N/A   Clear
8:35 PM 34.5 °F - 12.9 °F 41% 30.29 in 10.0 mi Calm Calm - N/A   Clear
8:55 PM 29.8 °F 26.3 °F 15.1 °F 54% 30.29 in 10.0 mi WSW 3.5 mph - N/A   Clear
9:15 PM 27.9 °F - 15.8 °F 61% 30.29 in 10.0 mi Calm Calm - N/A   Clear
9:35 PM 28.0 °F - 14.7 °F 57% 30.29 in 10.0 mi Calm Calm - N/A   Clear
9:55 PM 25.9 °F - 13.1 °F 58% 30.29 in 10.0 mi Calm Calm - N/A   Clear
10:15 PM 24.4 °F 18.6 °F 13.3 °F 63% 30.29 in 10.0 mi West 4.6 mph - N/A   Clear
10:35 PM 28.4 °F 24.6 °F 13.5 °F 54% 30.29 in 10.0 mi WSW 3.5 mph - N/A   Clear
10:55 PM 27.3 °F 23.4 °F 14.0 °F 57% 30.29 in 10.0 mi WSW 3.5 mph - N/A   Clear
11:15 PM 25.2 °F 20.9 °F 14.5 °F 64% 30.29 in 10.0 mi WSW 3.5 mph - N/A   Clear
11:35 PM 27.0 °F - 15.1 °F 61% 30.28 in 10.0 mi Calm Calm - N/A   Clear
11:55 PM 23.2 °F 17.2 °F 14.0 °F 68% 30.27 in 10.0 mi South 4.6 mph - N/A   Clear